Terminal Aerodrome Forecast
Issued by NWS Nashville, TN

Home | Current Version | Previous Version | Text Only | Print | Product List | Glossary On
Versions: 1 2 3 4 5 6 7 8 9 10 11 12 13 14 15 16 17 18 19 20
882
FTUS44 KOHX 020520
TAFBNA
TAF
KBNA 020520Z 0206/0306 22006KT P6SM SCT100
     FM021000 20005KT P6SM VCSH SCT040 BKN080
     FM021600 01005KT 6SM -SHRA BR SCT025 BKN040 PROB30 0220/0224
      2SM TSRA BKN025CB
     FM030200 34007KT P6SM SCT035 BKN100=

USA.gov is the U.S. government's official web portal to all federal, state and local government web resources and services.